Hornsby, Illinois
Current Conditions -  °F | °C
As of 12:35 PM on Sunday 23 Nov 2014 (Local Time) from K3LF Reporting Station
Moderate Rain Moderate Rain  
Wind Chill: 51°   Ceiling: 900
Heat Index: 51°   Visibility: 4mi
Dew Point: 48°   Wind: 14mph
Humidity: 91%   Direction: 130°SE
Pressure: 29.5"   Gusts: NA
Location:  39.1865°N, 89.679°W
Report Text: K3LF 231835Z AUTO 13012KT 4SM RA BKN009 BKN015 OVC027 11/09 A2950 RMK AO2 P0004 T01050091
Loading
Personal Weather Stations






























Interactive Weather Map New forecast layout! Learn more

10-Day Weather Forecast

Advertisements
Track Severe Weather on mobile